GAF221 LGAV-LGPZ
Flight info
| Callsign | GAF221 |
|---|---|
| Flight time | N/A |
| Altitude | 31000 |
| Route | GOGSI2G GOGSI N621 SAM M195 IBNID/N0454FFPL LFW221 IM |
| Aircraft | B38M/M-SDE1FGHILORVWXY/HB1 |
Departure
| Time | N/A |
|---|---|
| Airport | Athens Eleftherios Venizelos International Airport (LGAV) |
Arrival
| Time | 2026-04-25 15:14 |
|---|---|
| Airport | Aktion National Airport (LGPZ) |
| Time | Latitude | Longitude | Altitude | Speed | Heading |
|---|---|---|---|---|---|
| 2026-04-25 15:04 | 38.69361 | 21.52408 | 11623 ft | 318 kts | 307° |
| 2026-04-25 15:04 | 38.70574 | 21.50113 | 11115 ft | 312 kts | 307° |
| 2026-04-25 15:04 | 38.71767 | 21.47849 | 10736 ft | 301 kts | 307° |
| 2026-04-25 15:04 | 38.72922 | 21.45658 | 10286 ft | 294 kts | 307° |
| 2026-04-25 15:05 | 38.74062 | 21.43499 | 9796 ft | 291 kts | 307° |
| 2026-04-25 15:05 | 38.75175 | 21.41389 | 9498 ft | 280 kts | 307° |
| 2026-04-25 15:05 | 38.76240 | 21.39366 | 9301 ft | 268 kts | 307° |
| 2026-04-25 15:06 | 38.78245 | 21.35552 | 9018 ft | 248 kts | 307° |
| 2026-04-25 15:06 | 38.79191 | 21.33752 | 8913 ft | 239 kts | 307° |
| 2026-04-25 15:06 | 38.80104 | 21.32014 | 8818 ft | 231 kts | 307° |
| 2026-04-25 15:06 | 38.80990 | 21.30329 | 8718 ft | 224 kts | 308° |
| 2026-04-25 15:07 | 38.81850 | 21.28692 | 8642 ft | 218 kts | 307° |
| 2026-04-25 15:07 | 38.82677 | 21.27118 | 8582 ft | 213 kts | 307° |
| 2026-04-25 15:07 | 38.83506 | 21.25540 | 8344 ft | 217 kts | 307° |
| 2026-04-25 15:07 | 38.84382 | 21.23884 | 7883 ft | 229 kts | 307° |
| 2026-04-25 15:08 | 38.85285 | 21.22177 | 7646 ft | 229 kts | 307° |
| 2026-04-25 15:08 | 38.86158 | 21.20510 | 7630 ft | 219 kts | 307° |
| 2026-04-25 15:08 | 38.86988 | 21.18914 | 7624 ft | 211 kts | 307° |
| 2026-04-25 15:08 | 38.87868 | 21.17239 | 7648 ft | 242 kts | 307° |
| 2026-04-25 15:09 | 38.88812 | 21.15443 | 7483 ft | 242 kts | 307° |
| 2026-04-25 15:09 | 38.89755 | 21.13640 | 7015 ft | 249 kts | 307° |
| 2026-04-25 15:09 | 38.91729 | 21.09858 | 6186 ft | 254 kts | 306° |
| 2026-04-25 15:10 | 38.92384 | 21.08597 | 6065 ft | 248 kts | 306° |
| 2026-04-25 15:10 | 38.93659 | 21.06145 | 5409 ft | 254 kts | 307° |
| 2026-04-25 15:10 | 38.95574 | 21.01969 | 3400 ft | 289 kts | 296° |
| 2026-04-25 15:11 | 38.96298 | 20.99528 | 2574 ft | 292 kts | 289° |
| 2026-04-25 15:11 | 38.96734 | 20.97031 | 2126 ft | 279 kts | 279° |
| 2026-04-25 15:11 | 38.96883 | 20.94728 | 1967 ft | 234 kts | 272° |
| 2026-04-25 15:12 | 38.96651 | 20.91161 | 1990 ft | 185 kts | 262° |
| 2026-04-25 15:12 | 38.96375 | 20.89565 | 1986 ft | 182 kts | 258° |
| 2026-04-25 15:12 | 38.95991 | 20.88018 | 1989 ft | 182 kts | 252° |
| 2026-04-25 15:12 | 38.95848 | 20.87522 | 1992 ft | 183 kts | 252° |
| 2026-04-25 15:13 | 38.95085 | 20.85035 | 1999 ft | 169 kts | 250° |
| 2026-04-25 15:13 | 38.94263 | 20.82335 | 1533 ft | 149 kts | 253° |
| 2026-04-25 15:13 | 38.93908 | 20.81149 | 1089 ft | 140 kts | 255° |
| 2026-04-25 15:14 | 38.93623 | 20.79932 | 489 ft | 138 kts | 250° |
| 2026-04-25 15:14 | 38.93288 | 20.78895 | 203 ft | 116 kts | 249° |
| 2026-04-25 15:14 | 38.93006 | 20.77942 | 51 ft | 112 kts | 250° |
| 2026-04-25 15:14 | 38.92804 | 20.77270 | 21 ft | 22 kts | 249° |
| 2026-04-25 15:15 | 38.92772 | 20.77165 | 20 ft | 16 kts | 243° |
| 2026-04-25 15:15 | 38.92658 | 20.77163 | 21 ft | 19 kts | 148° |
| 2026-04-25 15:15 | 38.92653 | 20.77259 | 20 ft | 13 kts | 63° |
| 2026-04-25 15:15 | 38.92694 | 20.77388 | 20 ft | 18 kts | 69° |
| 2026-04-25 15:16 | 38.92748 | 20.77556 | 22 ft | 22 kts | 67° |
| 2026-04-25 15:16 | 38.92810 | 20.77747 | 22 ft | 19 kts | 59° |
| 2026-04-25 15:16 | 38.92882 | 20.77767 | 23 ft | 13 kts | 344° |
| 2026-04-25 15:17 | 38.92928 | 20.77426 | 21 ft | 23 kts | 328° |
| 2026-04-25 15:17 | 38.93044 | 20.77371 | 22 ft | 8 kts | 301° |
| 2026-04-25 15:17 | 38.93051 | 20.77375 | 22 ft | 4 kts | 227° |
| 2026-04-25 15:18 | 38.93056 | 20.77382 | 23 ft | 0 kts | 230° |
| 2026-04-25 15:18 | 38.93042 | 20.77360 | 22 ft | 4 kts | 230° |
| 2026-04-25 15:18 | 38.93057 | 20.77384 | 24 ft | 1 kts | 230° |
| 2026-04-25 15:19 | 38.93058 | 20.77385 | 24 ft | 5 kts | 229° |
| 2026-04-25 15:19 | 38.93047 | 20.77371 | 22 ft | 1 kts | 219° |
| 2026-04-25 15:19 | 38.93048 | 20.77393 | 24 ft | 0 kts | 234° |